Time;durP1;ratioP1;P1;durP2;ratioP2;P2;SDS_P1;SDS_P2;PMS_P1;PMS_P2;Temp;Humidity;BMP_temperature;BMP_pressure;BME280_temperature;BME280_humidity;BME280_pressure;Samples;Min_cycle;Max_cycle;Signal;HPM_P1;HPM_P2
2022/04/03 00:02:03;;;;;;;3.40;3.10;;;20.10;46.40;;;;;;5015744;28;20198;-71
2022/04/03 00:04:28;;;;;;;2.92;2.72;;;20.10;46.30;;;;;;5015155;28;20612;-70
2022/04/03 00:06:54;;;;;;;3.50;2.72;;;20.10;46.30;;;;;;5013772;28;20218;-70
2022/04/03 00:09:20;;;;;;;2.90;2.70;;;20.10;46.30;;;;;;4990099;28;20207;-70
2022/04/03 00:11:46;;;;;;;3.08;2.88;;;20.10;46.30;;;;;;5033438;28;20187;-70
2022/04/03 00:14:12;;;;;;;2.75;2.55;;;20.10;46.30;;;;;;5016906;28;20238;-70
2022/04/03 00:16:39;;;;;;;3.50;2.70;;;20.10;46.20;;;;;;5016791;28;20277;-70
2022/04/03 00:19:05;;;;;;;3.35;3.05;;;20.10;46.20;;;;;;5017105;28;20218;-71
2022/04/03 00:21:31;;;;;;;2.78;2.55;;;20.10;46.30;;;;;;5033393;28;20183;-70
2022/04/03 00:23:56;;;;;;;2.53;2.33;;;20.10;46.40;;;;;;5034430;28;20180;-70
2022/04/03 00:26:22;;;;;;;2.83;2.63;;;20.10;46.40;;;;;;5016899;28;20175;-68
2022/04/03 00:28:48;;;;;;;2.78;2.58;;;20.10;46.30;;;;;;5033048;28;20294;-70
2022/04/03 00:31:14;;;;;;;2.80;2.53;;;20.10;46.40;;;;;;5034198;28;20237;-70
2022/04/03 00:33:41;;;;;;;2.88;2.67;;;20.10;46.30;;;;;;5033026;28;20198;-70
2022/04/03 00:36:07;;;;;;;2.67;2.47;;;20.10;46.30;;;;;;5033002;28;20209;-70
2022/04/03 00:38:33;;;;;;;2.50;2.30;;;20.10;46.30;;;;;;5016636;28;20211;-69
2022/04/03 00:41:02;;;;;;;2.67;2.40;;;20.10;46.40;;;;;;5033064;28;20211;-70
2022/04/03 00:43:28;;;;;;;2.33;2.13;;;20.10;46.40;;;;;;5034236;28;20183;-70
2022/04/03 00:45:55;;;;;;;2.63;2.42;;;20.10;46.30;;;;;;5016295;28;20187;-70
2022/04/03 00:48:22;;;;;;;2.70;2.50;;;20.10;46.30;;;;;;5032671;28;20242;-70
2022/04/03 00:50:48;;;;;;;2.83;2.63;;;20.10;46.40;;;;;;5016379;28;20199;-70
2022/04/03 00:53:14;;;;;;;2.47;2.28;;;20.10;46.30;;;;;;5032645;28;20191;-70
2022/04/03 00:55:42;;;;;;;2.63;2.42;;;20.10;46.30;;;;;;5016226;28;20214;-70
2022/04/03 00:58:10;;;;;;;3.00;2.80;;;20.10;46.20;;;;;;5016068;28;20199;-70
2022/04/03 01:00:37;;;;;;;2.60;2.40;;;20.10;46.30;;;;;;5016041;28;20579;-70
2022/04/03 01:03:03;;;;;;;2.90;2.65;;;20.00;46.10;;;;;;5033760;28;20221;-70
2022/04/03 01:05:29;;;;;;;2.47;2.28;;;20.00;46.10;;;;;;5032302;28;20194;-70
2022/04/03 01:07:56;;;;;;;2.80;2.60;;;20.00;46.00;;;;;;5032037;28;20210;-70
2022/04/03 01:10:22;;;;;;;2.58;2.38;;;20.10;46.10;;;;;;5033487;28;20211;-70
2022/04/03 01:12:48;;;;;;;2.20;2.10;;;20.10;46.10;;;;;;5032359;28;20270;-70
2022/04/03 01:15:17;;;;;;;2.88;2.65;;;20.10;46.20;;;;;;5015706;28;20361;-70
2022/04/03 01:17:43;;;;;;;2.65;2.45;;;20.00;46.10;;;;;;5033395;28;20203;-70
2022/04/03 01:20:11;;;;;;;2.72;2.53;;;20.00;46.20;;;;;;5015854;28;20194;-70
2022/04/03 01:22:37;;;;;;;2.25;2.10;;;20.10;46.20;;;;;;5032190;28;20190;-70
2022/04/03 01:25:04;;;;;;;2.67;2.47;;;20.00;46.20;;;;;;5032048;28;20342;-70
2022/04/03 01:27:30;;;;;;;2.70;2.50;;;20.00;46.20;;;;;;5033412;28;20535;-70
2022/04/03 01:29:57;;;;;;;2.40;2.20;;;20.00;46.20;;;;;;5031747;28;20725;-70
2022/04/03 01:32:24;;;;;;;2.50;2.30;;;20.10;46.20;;;;;;5031903;28;20187;-70
2022/04/03 01:34:50;;;;;;;2.38;2.17;;;20.10;46.20;;;;;;5015248;28;20284;-70
2022/04/03 01:37:16;;;;;;;2.42;2.22;;;20.10;46.20;;;;;;5020779;28;20732;-70
2022/04/03 01:39:42;;;;;;;2.53;2.33;;;20.10;46.20;;;;;;5017683;28;20290;-70
2022/04/03 01:42:09;;;;;;;2.55;2.35;;;20.10;46.20;;;;;;5032853;28;20214;-70
2022/04/03 01:44:35;;;;;;;2.25;2.05;;;20.10;46.20;;;;;;5031818;28;20187;-70
2022/04/03 01:47:01;;;;;;;2.40;2.28;;;20.10;46.20;;;;;;5031757;28;20190;-70
2022/04/03 01:49:27;;;;;;;2.50;2.30;;;20.10;46.10;;;;;;5015137;28;20207;-70
2022/04/03 01:51:53;;;;;;;2.63;2.33;;;20.00;46.00;;;;;;5032701;28;20178;-70
2022/04/03 01:54:18;;;;;;;2.30;2.10;;;20.00;46.00;;;;;;5013019;28;20227;-70
2022/04/03 01:56:45;;;;;;;2.70;2.50;;;20.10;46.10;;;;;;5036135;28;20193;-70
2022/04/03 01:59:10;;;;;;;2.60;2.40;;;20.00;46.00;;;;;;5044752;28;20202;-70
2022/04/03 02:01:36;;;;;;;2.88;2.63;;;20.00;46.00;;;;;;5052467;28;20178;-69
2022/04/03 02:04:03;;;;;;;2.65;2.45;;;20.00;46.00;;;;;;5034650;28;20185;-69
2022/04/03 02:06:30;;;;;;;2.45;2.30;;;20.00;46.00;;;;;;5052870;28;20174;-70
2022/04/03 02:08:57;;;;;;;2.22;2.03;;;20.00;46.00;;;;;;5035052;28;20230;-70
2022/04/03 02:11:23;;;;;;;2.10;1.90;;;20.00;46.10;;;;;;5050943;28;20231;-70
2022/04/03 02:13:50;;;;;;;2.30;2.10;;;20.10;46.20;;;;;;5034679;28;20182;-70
2022/04/03 02:16:16;;;;;;;2.40;2.10;;;20.00;46.10;;;;;;5052354;28;20764;-70
2022/04/03 02:18:42;;;;;;;2.45;2.25;;;20.00;46.00;;;;;;5051035;28;20225;-69
2022/04/03 02:21:08;;;;;;;2.42;2.15;;;20.10;46.20;;;;;;5034570;28;20174;-70
2022/04/03 02:23:34;;;;;;;2.20;2.10;;;20.10;46.20;;;;;;5052187;28;20186;-70
2022/04/03 02:26:00;;;;;;;2.35;2.10;;;20.10;46.20;;;;;;5047637;28;20214;-70
2022/04/03 02:28:26;;;;;;;2.30;2.10;;;20.10;46.20;;;;;;5068165;22;20283;-66
2022/04/03 02:30:51;;;;;;;2.10;1.90;;;20.10;46.20;;;;;;5033392;28;20190;-65
2022/04/03 02:33:18;;;;;;;2.25;2.05;;;20.10;46.20;;;;;;5034007;28;20186;-65
2022/04/03 02:35:44;;;;;;;2.15;1.95;;;20.10;46.20;;;;;;5017244;28;20218;-65
2022/04/03 02:38:09;;;;;;;2.20;2.00;;;20.10;46.20;;;;;;5014012;28;20202;-65
2022/04/03 02:40:35;;;;;;;2.67;2.30;;;20.10;46.20;;;;;;5030515;28;20183;-65
2022/04/03 02:43:02;;;;;;;2.30;2.10;;;20.10;46.80;;;;;;5006031;28;20310;-65
2022/04/03 02:45:28;;;;;;;2.53;2.33;;;20.10;46.10;;;;;;4985810;28;20199;-65
2022/04/03 02:47:55;;;;;;;2.63;2.42;;;20.10;46.70;;;;;;5007779;28;20204;-65
2022/04/03 02:50:25;;;;;;;2.70;2.50;;;20.10;46.10;;;;;;5034620;28;20185;-66
2022/04/03 02:52:53;;;;;;;2.90;2.22;;;20.10;46.20;;;;;;4992494;28;20271;-65
2022/04/03 02:55:21;;;;;;;2.40;2.20;;;20.10;46.10;;;;;;5014414;28;20211;-65
2022/04/03 02:57:48;;;;;;;2.38;2.17;;;20.00;46.70;;;;;;5026398;28;20213;-65
2022/04/03 03:00:14;;;;;;;2.40;2.30;;;20.00;46.00;;;;;;5018621;28;20183;-65
2022/04/03 03:02:43;;;;;;;2.22;2.03;;;20.10;46.10;;;;;;5035116;28;20187;-65
2022/04/03 03:05:09;;;;;;;1.90;1.80;;;20.00;46.10;;;;;;5035916;28;20194;-65
2022/04/03 03:07:37;;;;;;;2.03;1.92;;;20.10;46.20;;;;;;5034829;28;20273;-65
2022/04/03 03:10:05;;;;;;;2.10;2.00;;;20.10;46.20;;;;;;5034844;28;20179;-65
2022/04/03 03:12:31;;;;;;;2.28;2.10;;;20.10;46.20;;;;;;5034767;28;20187;-65
2022/04/03 03:14:57;;;;;;;2.60;2.40;;;20.10;46.20;;;;;;5030118;28;20702;-65
2022/04/03 03:17:23;;;;;;;1.98;1.88;;;20.10;46.20;;;;;;5029096;28;20187;-65
2022/04/03 03:19:49;;;;;;;2.08;1.90;;;20.10;46.20;;;;;;5034691;28;20211;-65
2022/04/03 03:22:15;;;;;;;2.17;1.98;;;20.10;46.20;;;;;;5034781;28;20194;-65
2022/04/03 03:24:41;;;;;;;2.33;2.13;;;20.00;46.10;;;;;;5018002;28;20179;-65
2022/04/03 03:27:07;;;;;;;2.22;1.95;;;20.10;46.20;;;;;;5034855;28;20270;-65
2022/04/03 03:29:33;;;;;;;2.15;2.05;;;20.10;46.10;;;;;;5017657;28;20218;-64
2022/04/03 03:32:00;;;;;;;2.58;2.38;;;20.10;46.20;;;;;;5034480;28;20183;-65
2022/04/03 03:34:26;;;;;;;2.10;2.00;;;20.10;46.10;;;;;;5034196;28;20215;-66
2022/04/03 03:36:52;;;;;;;2.33;2.13;;;20.10;46.10;;;;;;5034517;28;20187;-65
2022/04/03 03:39:18;;;;;;;2.58;2.38;;;20.10;46.10;;;;;;5017930;28;20294;-65
2022/04/03 03:41:44;;;;;;;2.15;2.00;;;20.10;46.10;;;;;;5017890;28;20183;-66
2022/04/03 03:44:10;;;;;;;2.63;2.42;;;20.10;46.10;;;;;;5033897;28;20179;-65
2022/04/03 03:46:39;;;;;;;2.30;2.10;;;20.10;46.00;;;;;;5006005;28;20190;-66
2022/04/03 03:49:08;;;;;;;2.53;2.33;;;20.00;46.00;;;;;;5017763;28;20210;-65
2022/04/03 03:51:36;;;;;;;2.47;2.28;;;20.10;46.10;;;;;;5033665;28;20237;-66
2022/04/03 03:54:03;;;;;;;2.20;2.00;;;20.00;46.00;;;;;;5039861;28;20237;-65
2022/04/03 03:56:29;;;;;;;2.33;1.90;;;20.10;46.00;;;;;;5032506;28;20191;-65
2022/04/03 03:58:54;;;;;;;2.92;2.30;;;20.10;46.00;;;;;;5001080;28;20202;-65
2022/04/03 04:01:22;;;;;;;1.95;1.77;;;20.10;46.00;;;;;;5017122;28;20183;-65
2022/04/03 04:03:48;;;;;;;2.40;2.20;;;20.10;46.10;;;;;;5033799;28;20168;-65
2022/04/03 04:06:15;;;;;;;2.22;2.03;;;20.10;46.10;;;;;;5033828;28;20183;-65
2022/04/03 04:08:42;;;;;;;2.00;1.90;;;20.10;46.10;;;;;;5033558;28;20211;-65
2022/04/03 04:11:08;;;;;;;2.13;1.92;;;20.10;46.10;;;;;;5005226;28;20191;-65
2022/04/03 04:13:35;;;;;;;1.98;1.88;;;20.10;46.10;;;;;;5025223;28;20325;-65
2022/04/03 04:16:01;;;;;;;2.38;2.17;;;20.10;46.10;;;;;;5033659;28;20302;-65
2022/04/03 04:18:27;;;;;;;1.92;1.83;;;20.10;46.10;;;;;;5033412;28;20294;-65
2022/04/03 04:20:53;;;;;;;1.98;1.77;;;20.10;46.10;;;;;;5033204;28;20193;-65
2022/04/03 04:23:20;;;;;;;1.88;1.77;;;20.10;46.10;;;;;;5033199;28;20183;-66
2022/04/03 04:25:46;;;;;;;2.55;2.35;;;20.10;46.00;;;;;;5032862;28;20205;-66
2022/04/03 04:28:12;;;;;;;2.40;2.20;;;20.10;46.10;;;;;;5016333;28;20690;-65
2022/04/03 04:30:39;;;;;;;2.60;2.40;;;20.10;46.00;;;;;;5033369;28;20187;-65
2022/04/03 04:33:09;;;;;;;2.05;1.95;;;20.00;45.90;;;;;;5033422;28;20191;-65
2022/04/03 04:35:35;;;;;;;3.05;2.13;;;20.00;46.00;;;;;;5033380;28;20280;-65
2022/04/03 04:38:02;;;;;;;1.90;1.80;;;20.10;46.00;;;;;;5020573;28;20737;-65
2022/04/03 04:40:29;;;;;;;2.47;2.28;;;20.10;46.00;;;;;;5013961;28;20192;-64
2022/04/03 04:42:57;;;;;;;3.13;2.00;;;20.10;46.00;;;;;;4999277;28;20198;-65
2022/04/03 04:45:25;;;;;;;2.28;1.90;;;20.00;45.90;;;;;;5032880;28;20188;-65
2022/04/03 04:47:59;;;;;;;1.92;1.83;;;20.00;45.90;;;;;;5016345;28;20203;-65
2022/04/03 04:50:27;;;;;;;2.10;2.00;;;20.10;46.00;;;;;;5032835;28;20171;-65
2022/04/03 04:52:53;;;;;;;1.95;1.85;;;20.00;46.00;;;;;;5033102;28;20222;-65
2022/04/03 04:55:19;;;;;;;2.03;1.90;;;20.00;46.00;;;;;;5016199;28;20199;-65
2022/04/03 04:57:52;;;;;;;2.35;2.00;;;20.10;46.00;;;;;;5033001;28;20187;-66
2022/04/03 05:00:20;;;;;;;2.17;1.95;;;20.00;46.00;;;;;;5032499;28;20651;-65
2022/04/03 05:02:47;;;;;;;2.30;2.10;;;20.00;45.90;;;;;;5016256;28;20179;-65
2022/04/03 05:05:17;;;;;;;1.77;1.67;;;20.00;46.00;;;;;;5032575;28;20187;-65
2022/04/03 05:07:44;;;;;;;2.50;2.30;;;20.10;46.00;;;;;;5029840;28;20199;-65
2022/04/03 05:10:13;;;;;;;2.40;2.20;;;20.10;46.00;;;;;;5015698;28;20550;-65
2022/04/03 05:12:40;;;;;;;2.40;2.25;;;20.00;45.90;;;;;;5032485;28;20294;-65
2022/04/03 05:15:08;;;;;;;2.47;2.28;;;20.00;45.90;;;;;;5032474;28;20310;-65
2022/04/03 05:17:34;;;;;;;2.30;2.10;;;20.00;45.90;;;;;;5032568;28;20183;-65
2022/04/03 05:20:00;;;;;;;2.15;2.05;;;20.00;45.80;;;;;;5032159;28;20233;-65
2022/04/03 05:22:26;;;;;;;2.65;2.45;;;20.00;45.80;;;;;;5032594;28;20558;-65
2022/04/03 05:24:53;;;;;;;2.20;2.10;;;20.00;45.80;;;;;;5032242;28;20197;-65
2022/04/03 05:27:19;;;;;;;2.50;2.30;;;20.00;45.80;;;;;;5032153;28;20198;-65
2022/04/03 05:29:46;;;;;;;1.95;1.85;;;20.00;45.80;;;;;;5032196;28;20218;-65
2022/04/03 05:32:12;;;;;;;1.83;1.73;;;20.00;45.80;;;;;;5032026;28;20255;-65
2022/04/03 05:34:38;;;;;;;2.28;2.00;;;20.00;45.80;;;;;;5031990;28;20218;-65
2022/04/03 05:37:04;;;;;;;1.70;1.60;;;20.00;45.90;;;;;;5028002;28;20192;-65
2022/04/03 05:39:30;;;;;;;2.10;2.00;;;20.00;45.90;;;;;;5012251;28;20280;-65
2022/04/03 05:41:55;;;;;;;1.85;1.75;;;20.00;45.80;;;;;;4995542;28;20180;-65
2022/04/03 05:44:22;;;;;;;2.30;2.10;;;20.00;45.90;;;;;;4995761;28;20270;-65
2022/04/03 05:46:49;;;;;;;1.75;1.65;;;20.00;45.90;;;;;;4995807;28;20215;-65
2022/04/03 05:49:17;;;;;;;1.90;1.80;;;20.00;45.80;;;;;;5011895;28;20295;-65
2022/04/03 05:51:42;;;;;;;1.88;1.77;;;20.10;45.90;;;;;;4991735;28;20199;-65
2022/04/03 05:54:08;;;;;;;2.10;1.90;;;20.00;45.90;;;;;;5015220;28;20179;-65
2022/04/03 05:56:34;;;;;;;2.15;1.95;;;20.00;45.90;;;;;;5031642;28;20179;-65
2022/04/03 05:59:01;;;;;;;2.25;1.90;;;20.00;45.90;;;;;;5015299;28;20203;-65
2022/04/03 06:01:26;;;;;;;2.33;2.03;;;20.10;45.90;;;;;;5031350;28;20183;-65
2022/04/03 06:03:52;;;;;;;2.17;2.08;;;20.10;45.90;;;;;;5015391;28;20236;-65
2022/04/03 06:06:18;;;;;;;2.38;2.17;;;20.00;45.80;;;;;;5031823;28;20551;-65
2022/04/03 06:08:44;;;;;;;2.45;2.25;;;20.10;45.90;;;;;;5014918;28;20210;-65
2022/04/03 06:11:11;;;;;;;2.30;2.10;;;20.00;45.80;;;;;;5031187;28;20183;-65
2022/04/03 06:13:37;;;;;;;2.42;2.22;;;20.00;45.80;;;;;;5032613;28;20214;-65
2022/04/03 06:16:03;;;;;;;2.58;2.38;;;20.00;45.80;;;;;;5032733;28;20713;-65
2022/04/03 06:18:29;;;;;;;2.50;2.20;;;20.00;45.70;;;;;;5014478;28;20210;-65
2022/04/03 06:20:55;;;;;;;2.65;2.45;;;20.00;45.70;;;;;;5009992;28;20191;-65
2022/04/03 06:23:23;;;;;;;2.85;2.10;;;20.00;45.80;;;;;;5015208;28;20283;-65
2022/04/03 06:25:54;;;;;;;2.33;2.13;;;20.00;45.80;;;;;;5031214;28;20670;-65
2022/04/03 06:28:20;;;;;;;2.00;1.90;;;20.00;45.80;;;;;;5031132;28;20223;-65
2022/04/03 06:30:46;;;;;;;2.65;1.80;;;20.00;45.80;;;;;;5032293;28;20265;-65
2022/04/03 06:33:13;;;;;;;1.95;1.83;;;20.00;45.80;;;;;;5031222;28;20190;-65
2022/04/03 06:35:39;;;;;;;1.90;1.80;;;20.00;45.80;;;;;;5014714;28;20230;-65
2022/04/03 06:38:05;;;;;;;1.75;1.65;;;20.00;45.90;;;;;;5031180;28;20279;-65
2022/04/03 06:40:36;;;;;;;1.65;1.55;;;20.00;45.80;;;;;;5031288;28;20297;-65
2022/04/03 06:43:02;;;;;;;1.90;1.80;;;20.10;45.90;;;;;;5031061;28;20194;-65
2022/04/03 06:45:28;;;;;;;2.03;1.80;;;20.00;45.80;;;;;;5014634;28;20183;-65
2022/04/03 06:47:57;;;;;;;2.42;1.73;;;20.00;45.80;;;;;;5031009;28;20217;-65
2022/04/03 06:50:24;;;;;;;2.05;1.88;;;20.00;45.80;;;;;;5020180;28;20194;-65
2022/04/03 06:52:50;;;;;;;1.98;1.88;;;20.00;45.80;;;;;;5022807;28;20245;-66
2022/04/03 06:55:16;;;;;;;1.98;1.88;;;20.00;45.80;;;;;;5013884;28;20211;-65
2022/04/03 06:57:42;;;;;;;2.53;2.33;;;20.00;45.80;;;;;;5010843;28;20188;-65
2022/04/03 07:00:09;;;;;;;2.25;2.05;;;20.00;45.80;;;;;;4995096;28;20187;-65
2022/04/03 07:02:35;;;;;;;2.15;2.00;;;20.00;45.70;;;;;;5007952;28;20638;-65
2022/04/03 07:05:04;;;;;;;2.38;2.17;;;20.00;45.70;;;;;;5008313;28;20193;-65
2022/04/03 07:07:30;;;;;;;2.40;2.20;;;20.10;45.90;;;;;;4987062;28;20199;-65
2022/04/03 07:09:56;;;;;;;2.55;2.35;;;20.10;45.80;;;;;;5011284;28;20188;-65
2022/04/03 07:12:22;;;;;;;2.40;2.20;;;20.10;45.70;;;;;;4994602;28;20222;-65
2022/04/03 07:14:49;;;;;;;2.50;2.30;;;20.00;45.60;;;;;;5011254;28;20262;-65
2022/04/03 07:17:16;;;;;;;2.10;2.00;;;20.00;45.70;;;;;;5011033;28;20187;-65
2022/04/03 07:19:42;;;;;;;1.90;1.80;;;20.00;45.70;;;;;;5011697;28;20220;-65
2022/04/03 07:22:08;;;;;;;2.10;2.00;;;20.10;45.80;;;;;;5022542;28;20183;-63
2022/04/03 07:24:34;;;;;;;2.33;2.15;;;20.10;45.80;;;;;;5001773;28;20199;-65
2022/04/03 07:27:00;;;;;;;1.92;1.83;;;20.10;45.80;;;;;;5002244;28;20192;-66
2022/04/03 07:29:25;;;;;;;2.10;2.00;;;20.10;45.70;;;;;;5010818;28;20216;-66
2022/04/03 07:31:53;;;;;;;1.90;1.75;;;20.10;45.70;;;;;;5013863;28;20195;-66
2022/04/03 07:34:19;;;;;;;2.08;1.98;;;20.10;45.70;;;;;;5014759;28;20195;-65
2022/04/03 07:36:45;;;;;;;2.10;2.00;;;20.10;45.70;;;;;;5015442;28;20633;-66
2022/04/03 07:39:12;;;;;;;2.03;1.92;;;20.10;45.70;;;;;;5014674;28;20323;-66
2022/04/03 07:41:38;;;;;;;2.10;2.00;;;20.10;45.70;;;;;;5003359;28;20181;-65
2022/04/03 07:44:09;;;;;;;2.08;1.88;;;20.10;45.60;;;;;;4998220;28;20191;-65
2022/04/03 07:46:36;;;;;;;2.22;2.10;;;20.10;45.60;;;;;;5014756;28;20250;-65
2022/04/03 07:49:04;;;;;;;2.60;2.40;;;20.10;45.60;;;;;;5030968;28;20327;-65
2022/04/03 07:51:30;;;;;;;3.03;2.75;;;20.10;45.60;;;;;;5023385;28;20271;-65
2022/04/03 07:53:57;;;;;;;3.95;2.47;;;20.10;45.50;;;;;;5034460;28;20202;-65
2022/04/03 07:56:22;;;;;;;2.63;2.42;;;20.10;46.10;;;;;;5033807;28;20243;-65
2022/04/03 07:58:49;;;;;;;2.35;2.17;;;20.10;45.60;;;;;;5000964;28;20223;-65
2022/04/03 08:01:14;;;;;;;2.63;2.42;;;20.20;45.60;;;;;;5033812;28;20662;-65
2022/04/03 08:03:40;;;;;;;2.70;2.50;;;20.20;45.60;;;;;;5034180;28;20214;-65
2022/04/03 08:06:07;;;;;;;2.72;2.42;;;20.20;45.40;;;;;;5033732;28;20271;-65
2022/04/03 08:08:33;;;;;;;2.08;1.98;;;20.20;45.60;;;;;;5033613;28;20207;-65
2022/04/03 08:10:59;;;;;;;2.30;2.17;;;20.20;45.50;;;;;;5016947;28;20643;-65
2022/04/03 08:13:25;;;;;;;1.80;1.70;;;20.20;45.50;;;;;;5034872;28;20270;-65
2022/04/03 08:15:51;;;;;;;2.08;1.98;;;20.20;45.50;;;;;;5033747;28;20215;-65
2022/04/03 08:18:17;;;;;;;2.20;2.00;;;20.30;45.50;;;;;;5034668;28;20230;-65
2022/04/03 08:20:44;;;;;;;2.20;2.00;;;20.30;45.60;;;;;;5006576;28;20223;-66
2022/04/03 08:23:10;;;;;;;2.30;2.20;;;20.30;45.50;;;;;;5017550;28;20185;-65
2022/04/03 08:25:37;;;;;;;2.00;1.90;;;20.30;45.50;;;;;;5021333;28;20245;-65
2022/04/03 08:28:03;;;;;;;2.20;2.00;;;20.30;45.50;;;;;;5046904;22;20217;-66
2022/04/03 08:30:34;;;;;;;2.20;2.10;;;20.30;45.40;;;;;;5010897;28;20628;-70
2022/04/03 08:33:04;;;;;;;1.92;1.83;;;20.40;45.60;;;;;;5030067;28;20184;-71
2022/04/03 08:35:31;;;;;;;1.98;1.88;;;20.40;45.40;;;;;;5013170;28;20302;-71
2022/04/03 08:37:58;;;;;;;2.20;2.00;;;20.40;45.40;;;;;;5014899;28;20225;-71
2022/04/03 08:40:27;;;;;;;1.90;1.80;;;20.40;45.40;;;;;;5009821;28;20181;-71
2022/04/03 08:42:55;;;;;;;2.70;2.00;;;20.40;45.40;;;;;;4976602;28;20188;-71
2022/04/03 08:45:23;;;;;;;5.65;2.13;;;20.50;45.50;;;;;;4993623;28;20280;-70
2022/04/03 08:47:56;;;;;;;2.05;1.95;;;20.50;45.30;;;;;;4993720;28;20268;-71
2022/04/03 08:50:32;;;;;;;2.20;1.98;;;20.50;45.30;;;;;;4999092;28;20212;-71
2022/04/03 08:53:01;;;;;;;2.05;1.95;;;20.50;45.30;;;;;;5001862;28;20648;-71
2022/04/03 08:55:29;;;;;;;1.90;1.80;;;20.50;45.30;;;;;;5009482;28;20295;-70
2022/04/03 08:57:56;;;;;;;2.00;1.85;;;20.50;45.20;;;;;;4994575;28;20182;-69
2022/04/03 09:00:22;;;;;;;2.22;2.03;;;20.60;45.10;;;;;;5009305;28;20244;-71
2022/04/03 09:02:50;;;;;;;2.17;1.95;;;20.60;45.20;;;;;;5003138;28;20247;-72
2022/04/03 09:05:17;;;;;;;2.33;1.98;;;20.60;45.10;;;;;;5013136;28;20271;-71
2022/04/03 09:07:57;;;;;;;2.50;1.80;;;20.60;45.00;;;;;;4996657;28;20196;-71
2022/04/03 09:10:23;;;;;;;1.83;1.73;;;20.60;45.00;;;;;;5013649;28;20294;-71
2022/04/03 09:12:50;;;;;;;2.22;2.10;;;20.70;45.00;;;;;;4993188;28;20247;-71
2022/04/03 09:15:19;;;;;;;2.05;1.73;;;20.70;45.00;;;;;;5000164;28;20204;-71
2022/04/03 09:17:57;;;;;;;1.98;1.88;;;20.70;45.00;;;;;;5012491;28;20180;-71
2022/04/03 09:20:27;;;;;;;2.10;1.92;;;20.70;45.00;;;;;;5012186;28;20295;-70
2022/04/03 09:22:59;;;;;;;1.95;1.75;;;20.70;45.00;;;;;;5012294;28;20214;-71
2022/04/03 09:25:32;;;;;;;1.75;1.65;;;20.70;45.00;;;;;;5012515;28;20188;-71
2022/04/03 09:28:01;;;;;;;1.90;1.80;;;20.70;45.00;;;;;;5012592;28;20191;-71
2022/04/03 09:30:47;;;;;;;2.22;2.03;;;20.70;44.90;;;;;;5011970;28;20238;-71
2022/04/03 09:33:19;;;;;;;2.15;2.03;;;20.70;44.90;;;;;;5012198;28;20199;-71
2022/04/03 09:36:02;;;;;;;2.80;1.70;;;20.70;44.90;;;;;;5011990;28;20594;-70
2022/04/03 09:38:31;;;;;;;4.13;1.92;;;20.70;44.90;;;;;;5011956;28;20203;-71
2022/04/03 09:41:00;;;;;;;2.00;1.90;;;20.70;44.90;;;;;;5028334;28;20203;-71
2022/04/03 09:43:40;;;;;;;2.22;2.03;;;20.70;44.90;;;;;;5003869;28;20636;-71
2022/04/03 09:46:11;;;;;;;2.50;2.30;;;20.70;44.90;;;;;;4973149;28;20621;-71
2022/04/03 09:48:39;;;;;;;2.00;1.90;;;20.70;45.00;;;;;;4973971;28;20205;-71
2022/04/03 09:51:12;;;;;;;1.98;1.80;;;20.70;44.90;;;;;;4972841;28;20205;-71
2022/04/03 09:53:43;;;;;;;1.80;1.70;;;20.70;45.00;;;;;;4973037;28;20177;-71
2022/04/03 09:56:15;;;;;;;1.80;1.70;;;20.70;44.90;;;;;;4972622;28;20228;-71
2022/04/03 09:58:57;;;;;;;1.90;1.80;;;20.70;45.40;;;;;;4972762;28;20305;-71
2022/04/03 10:01:29;;;;;;;1.85;1.73;;;20.70;44.90;;;;;;4988617;28;20188;-71
2022/04/03 10:03:58;;;;;;;2.00;1.90;;;20.70;44.90;;;;;;4972603;28;20220;-71
2022/04/03 10:06:24;;;;;;;2.22;2.05;;;20.70;44.90;;;;;;4972494;28;20213;-71
2022/04/03 10:08:50;;;;;;;1.90;1.80;;;20.70;44.80;;;;;;4973761;28;20264;-71
2022/04/03 10:11:17;;;;;;;1.80;1.70;;;20.70;44.90;;;;;;4991844;28;20683;-71
2022/04/03 10:13:44;;;;;;;1.85;1.75;;;20.70;44.90;;;;;;5002304;28;20284;-72
2022/04/03 10:16:12;;;;;;;1.90;1.80;;;20.70;44.90;;;;;;4992977;28;20267;-72
2022/04/03 10:18:43;;;;;;;1.65;1.50;;;20.70;45.00;;;;;;4991891;28;20208;-71
2022/04/03 10:21:26;;;;;;;2.00;1.80;;;20.70;44.90;;;;;;4995706;28;20219;-72
2022/04/03 10:23:59;;;;;;;2.72;2.00;;;20.70;45.00;;;;;;5001979;28;20734;-71
2022/04/03 10:26:27;;;;;;;2.25;2.10;;;20.70;45.00;;;;;;4975648;28;20200;-71
2022/04/03 10:28:56;;;;;;;2.15;1.95;;;20.80;45.20;;;;;;4991431;28;20279;-72
2022/04/03 10:31:22;;;;;;;2.13;1.75;;;20.70;45.00;;;;;;4991914;28;20239;-71
2022/04/03 10:33:51;;;;;;;1.73;1.63;;;20.80;45.20;;;;;;4991634;28;20181;-71
2022/04/03 10:36:26;;;;;;;1.90;1.80;;;20.80;45.10;;;;;;4991505;28;20224;-71
2022/04/03 10:39:10;;;;;;;1.83;1.73;;;20.80;45.10;;;;;;4992819;28;20254;-71
2022/04/03 10:41:40;;;;;;;1.65;1.55;;;20.80;45.20;;;;;;4991842;28;20168;-71
2022/04/03 10:44:18;;;;;;;1.80;1.70;;;20.80;45.20;;;;;;5008135;28;20169;-71
2022/04/03 10:47:18;;;;;;;1.70;1.60;;;20.80;45.20;;;;;;4991438;28;20172;-72
2022/04/03 10:50:00;;;;;;;1.75;1.65;;;20.80;45.10;;;;;;4991609;28;20259;-71
2022/04/03 10:52:38;;;;;;;1.80;1.70;;;20.80;45.10;;;;;;4980197;28;20193;-71
2022/04/03 10:55:29;;;;;;;1.63;1.52;;;20.80;45.00;;;;;;4972184;28;20209;-71
2022/04/03 10:58:04;;;;;;;1.77;1.67;;;20.80;45.00;;;;;;4972202;28;20192;-71
2022/04/03 11:00:40;;;;;;;1.85;1.60;;;20.80;45.10;;;;;;5010501;28;20191;-71
2022/04/03 11:03:18;;;;;;;1.95;1.80;;;20.80;45.10;;;;;;4996577;28;20194;-71
2022/04/03 11:05:50;;;;;;;1.60;1.50;;;20.80;45.10;;;;;;5012808;28;20199;-71
2022/04/03 11:08:18;;;;;;;1.95;1.63;;;20.80;45.20;;;;;;5014886;28;20180;-71
2022/04/03 11:10:59;;;;;;;1.60;1.50;;;20.80;45.20;;;;;;5015003;28;20226;-71
2022/04/03 11:13:31;;;;;;;2.03;1.50;;;20.80;45.20;;;;;;5031797;28;20270;-72
2022/04/03 11:16:01;;;;;;;1.60;1.50;;;20.80;45.20;;;;;;5014755;28;20220;-71
2022/04/03 11:18:41;;;;;;;1.95;1.77;;;20.80;45.20;;;;;;5031547;28;20208;-71
2022/04/03 11:21:33;;;;;;;1.52;1.40;;;20.80;45.20;;;;;;5014841;28;20199;-72
2022/04/03 11:24:03;;;;;;;1.92;1.77;;;20.90;45.30;;;;;;5023608;28;20184;-72
2022/04/03 11:26:30;;;;;;;1.65;1.55;;;20.90;45.30;;;;;;5015024;28;20192;-72
2022/04/03 11:28:56;;;;;;;1.60;1.45;;;20.80;45.20;;;;;;5012885;28;20223;-71
2022/04/03 11:31:22;;;;;;;2.25;1.80;;;20.80;45.30;;;;;;5020034;28;20185;-72
2022/04/03 11:33:49;;;;;;;1.95;1.77;;;20.90;45.30;;;;;;5012964;28;20187;-71
2022/04/03 11:36:23;;;;;;;1.90;1.80;;;20.90;45.30;;;;;;5004685;28;20706;-71
2022/04/03 11:38:51;;;;;;;1.95;1.77;;;20.90;45.20;;;;;;5010894;28;20208;-71
2022/04/03 11:41:31;;;;;;;1.65;1.55;;;20.90;45.40;;;;;;4978366;28;20177;-71
2022/04/03 11:44:08;;;;;;;1.58;1.48;;;20.90;45.30;;;;;;4978493;28;20216;-70
2022/04/03 11:46:48;;;;;;;1.70;1.60;;;20.80;45.20;;;;;;4976644;28;20183;-71
2022/04/03 11:49:28;;;;;;;1.80;1.70;;;20.90;45.30;;;;;;4975070;28;20205;-71
2022/04/03 11:52:09;;;;;;;1.85;1.52;;;20.90;45.30;;;;;;4998070;28;20274;-72
2022/04/03 11:54:38;;;;;;;1.60;1.50;;;20.90;45.20;;;;;;5027280;28;20261;-71
2022/04/03 11:57:07;;;;;;;1.70;1.60;;;20.90;45.30;;;;;;5014100;28;20195;-72
2022/04/03 11:59:39;;;;;;;1.58;1.48;;;20.90;45.40;;;;;;5006907;28;20692;-71
2022/04/03 12:02:23;;;;;;;1.40;1.30;;;20.90;45.40;;;;;;5011350;28;20177;-72
2022/04/03 12:04:49;;;;;;;1.75;1.65;;;20.90;45.40;;;;;;4994464;28;20181;-72
2022/04/03 12:07:16;;;;;;;1.60;1.50;;;20.90;45.30;;;;;;5010551;28;20193;-71
2022/04/03 12:09:46;;;;;;;1.67;1.58;;;20.90;45.40;;;;;;4994068;28;20212;-71
2022/04/03 12:12:12;;;;;;;2.08;1.60;;;20.90;45.40;;;;;;4994276;28;20247;-71
2022/04/03 12:14:42;;;;;;;1.73;1.40;;;20.90;45.40;;;;;;4980955;28;20233;-71
2022/04/03 12:17:15;;;;;;;1.63;1.52;;;20.90;45.30;;;;;;4973622;28;20193;-71
2022/04/03 12:19:47;;;;;;;2.65;1.60;;;20.90;45.20;;;;;;4974611;28;20281;-71
2022/04/03 12:22:15;;;;;;;1.65;1.55;;;20.90;45.20;;;;;;4992313;28;20178;-71
2022/04/03 12:24:44;;;;;;;1.63;1.52;;;20.90;45.20;;;;;;5013749;28;20197;-71
2022/04/03 12:27:21;;;;;;;2.17;1.70;;;20.90;45.30;;;;;;4976882;28;20273;-71
2022/04/03 12:29:54;;;;;;;1.88;1.77;;;20.90;45.30;;;;;;4986606;28;20215;-72
2022/04/03 12:32:25;;;;;;;1.70;1.60;;;20.90;45.40;;;;;;5009587;28;20180;-71
2022/04/03 12:34:52;;;;;;;2.72;1.58;;;20.90;45.30;;;;;;5014521;28;20212;-71
2022/04/03 12:37:19;;;;;;;3.00;1.75;;;20.90;45.40;;;;;;5013211;28;20187;-71
2022/04/03 12:39:51;;;;;;;2.25;1.90;;;20.80;45.30;;;;;;5013145;28;20208;-72
2022/04/03 12:42:38;;;;;;;1.50;1.40;;;20.80;45.40;;;;;;5010780;28;20591;-71
2022/04/03 12:45:18;;;;;;;1.75;1.65;;;20.80;45.40;;;;;;4977642;28;20289;-70
2022/04/03 12:48:00;;;;;;;1.40;1.30;;;20.80;45.40;;;;;;4996021;28;20264;-71
2022/04/03 12:50:38;;;;;;;1.75;1.48;;;20.80;45.50;;;;;;4984977;28;20197;-71
2022/04/03 12:53:06;;;;;;;1.55;1.40;;;20.80;45.50;;;;;;4993691;28;20180;-72
2022/04/03 12:55:41;;;;;;;3.25;1.70;;;20.80;45.50;;;;;;5000509;28;20287;-71